Home > Products > Valid Products > TAF

000
FTUS43 KGLD 281128
TAFMCK
TAF
KMCK 281128Z 2812/2912 VRB05KT P6SM SCT020 BKN150
     FM281500 36007KT P6SM SCT150
     FM281800 02007KT P6SM BKN080
     FM290100 VRB04KT P6SM FEW100=



000
FTUS43 KGLD 281128
TAFGLD
TAF
KGLD 281128Z 2812/2912 02008KT P6SM SCT020 SCT070
     FM281800 04008KT P6SM BKN090
     FM290100 VRB04KT P6SM SKC
     FM290800 24006KT P6SM SKC=



000
FTUS43 KGLD 281128
TAFMCK
TAF
KMCK 281128Z 2812/2912 VRB05KT P6SM SCT020 BKN150
     FM281500 36007KT P6SM SCT150
     FM281800 02007KT P6SM BKN080
     FM290100 VRB04KT P6SM FEW100=



000
FTUS43 KGLD 280520
TAFMCK
TAF
KMCK 280520Z 2806/2906 36008KT P6SM SCT120=



000
FTUS43 KGLD 280520
TAFMCK
TAF
KMCK 280520Z 2806/2906 36008KT P6SM SCT120=



000
FTUS43 KGLD 280520
TAFGLD
TAF
KGLD 280520Z 2806/2906 33005KT P6SM BKN120
     FM281800 04011KT P6SM SCT120=



000
FTUS43 KGLD 280520
TAFMCK
TAF
KMCK 280520Z 2806/2906 36008KT P6SM SCT120=



000
FTUS43 KGLD 272323
TAFMCK
TAF
KMCK 272323Z 2800/2824 36007KT P6SM SCT120=



000
FTUS43 KGLD 272323
TAFGLD
TAF
KGLD 272323Z 2800/2824 05012KT P6SM SCT060
     FM280100 VRB05KT P6SM FEW120=



000
FTUS43 KGLD 272323
TAFMCK
TAF
KMCK 272323Z 2800/2824 36007KT P6SM SCT120=



000
FTUS43 KGLD 272323
TAFGLD
TAF
KGLD 272323Z 2800/2824 05012KT P6SM SCT060
     FM280100 VRB05KT P6SM FEW120=



000
FTUS43 KGLD 272323
TAFMCK
TAF
KMCK 272323Z 2800/2824 36007KT P6SM SCT120=



000
FTUS43 KGLD 271720
TAFMCK
TAF
KMCK 271720Z 2718/2818 05012KT P6SM BKN250
     FM280100 05007KT P6SM FEW250
     FM280300 VRB03KT P6SM FEW250
     FM281700 01010KT P6SM SCT250=



000
FTUS43 KGLD 271720
TAFMCK
TAF
KMCK 271720Z 2718/2818 05012KT P6SM BKN250
     FM280100 05007KT P6SM FEW250
     FM280300 VRB03KT P6SM FEW250
     FM281700 01010KT P6SM SCT250=



000
FTUS43 KGLD 271720
TAFMCK
TAF
KMCK 271720Z 2718/2818 05012KT P6SM BKN250
     FM280100 05007KT P6SM FEW250
     FM280300 VRB03KT P6SM FEW250
     FM281700 01010KT P6SM SCT250=



000
FTUS43 KGLD 271720
TAFGLD
TAF
KGLD 271720Z 2718/2818 04015G22KT P6SM FEW040 BKN130
     FM280100 VRB05KT P6SM FEW250
     FM281100 29008KT P6SM FEW250
     FM281700 02011KT P6SM SCT250=



000
FTUS43 KGLD 271720
TAFGLD
TAF
KGLD 271720Z 2718/2818 04015G22KT P6SM FEW040 BKN130
     FM280100 VRB05KT P6SM FEW250
     FM281100 29008KT P6SM FEW250
     FM281700 02011KT P6SM SCT250=



000
FTUS43 KGLD 271720
TAFMCK
TAF
KMCK 271720Z 2718/2818 05012KT P6SM BKN250
     FM280100 05007KT P6SM FEW250
     FM280300 VRB03KT P6SM FEW250
     FM281700 01010KT P6SM SCT250=



000
FTUS43 KGLD 271150 AAA
TAFGLD
TAF AMD
KGLD 271150Z 2712/2812 04010KT 3SM BR OVC035
     FM271400 05013KT P6SM BKN050
     FM271600 04015G22KT P6SM SCT050 BKN150
     FM272300 06011KT P6SM SCT200
     FM280200 VRB04KT P6SM SKC
     FM280900 29007KT P6SM SKC=



000
FTUS43 KGLD 271121
TAFMCK
TAF
KMCK 271121Z 2712/2812 03008KT P6SM FEW040 BKN200
     FM271800 05012G17KT P6SM SCT250
     FM272300 06010KT P6SM FEW250
     FM280100 VRB04KT P6SM SKC=



000
FTUS43 KGLD 271121
TAFGLD
TAF
KGLD 271121Z 2712/2812 04010KT 5SM BR OVC035
     FM271400 05013KT P6SM BKN050
     FM271600 04015G22KT P6SM SCT050 BKN150
     FM272300 06011KT P6SM SCT200
     FM280200 VRB04KT P6SM SKC
     FM280900 29007KT P6SM SKC=



000
FTUS43 KGLD 271121
TAFMCK
TAF
KMCK 271121Z 2712/2812 03008KT P6SM FEW040 BKN200
     FM271800 05012G17KT P6SM SCT250
     FM272300 06010KT P6SM FEW250
     FM280100 VRB04KT P6SM SKC=



000
FTUS43 KGLD 271121
TAFGLD
TAF
KGLD 271121Z 2712/2812 04010KT 5SM BR OVC035
     FM271400 05013KT P6SM BKN050
     FM271600 04015G22KT P6SM SCT050 BKN150
     FM272300 06011KT P6SM SCT200
     FM280200 VRB04KT P6SM SKC
     FM280900 29007KT P6SM SKC=



000
FTUS43 KGLD 271121
TAFMCK
TAF
KMCK 271121Z 2712/2812 03008KT P6SM FEW040 BKN200
     FM271800 05012G17KT P6SM SCT250
     FM272300 06010KT P6SM FEW250
     FM280100 VRB04KT P6SM SKC=



000
FTUS43 KGLD 271121
TAFMCK
TAF
KMCK 271121Z 2712/2812 03008KT P6SM FEW040 BKN200
     FM271800 05012G17KT P6SM SCT250
     FM272300 06010KT P6SM FEW250
     FM280100 VRB04KT P6SM SKC=



000
FTUS43 KGLD 270532 AAA
TAFGLD
TAF AMD
KGLD 270532Z 2706/2806 07009KT P6SM BKN020
      TEMPO 2706/2708 5SM BR BKN006
     FM271400 04012KT P6SM BKN030
     FM271600 04014G19KT P6SM SCT035 BKN180
     FM272300 06011KT P6SM FEW050 SCT180
     FM280300 VRB04KT P6SM SCT200=



000
FTUS43 KGLD 270520
TAFMCK
TAF
KMCK 270520Z 2706/2806 06007KT P6SM BKN040
     FM271000 04006KT P6SM SCT040 SCT200
     FM271800 05012G17KT P6SM FEW050 SCT250
     FM272100 05011KT P6SM FEW050 SCT250
     FM280300 VRB04KT P6SM FEW200=



000
FTUS43 KGLD 270520
TAFMCK
TAF
KMCK 270520Z 2706/2806 06007KT P6SM BKN040
     FM271000 04006KT P6SM SCT040 SCT200
     FM271800 05012G17KT P6SM FEW050 SCT250
     FM272100 05011KT P6SM FEW050 SCT250
     FM280300 VRB04KT P6SM FEW200=



000
FTUS43 KGLD 270520
TAFMCK
TAF
KMCK 270520Z 2706/2806 06007KT P6SM BKN040
     FM271000 04006KT P6SM SCT040 SCT200
     FM271800 05012G17KT P6SM FEW050 SCT250
     FM272100 05011KT P6SM FEW050 SCT250
     FM280300 VRB04KT P6SM FEW200=



000
FTUS43 KGLD 270520 CCA
TAFGLD
TAF COR
KGLD 270520Z 2706/2806 07009KT 6SM BR BKN020
     FM271400 04012KT P6SM BKN030
     FM271600 04014G19KT P6SM SCT035 BKN180
     FM272300 06011KT P6SM FEW050 SCT180
     FM280300 VRB04KT P6SM SCT200=



000
FTUS43 KGLD 270520
TAFGLD
TAF
KGLD 270520Z 2706/2806 07009KT P6SM BKN020
     FM271400 04012KT P6SM BKN030
     FM271600 04014G19KT P6SM SCT035 BKN180
     FM272300 06011KT P6SM FEW050 SCT180
     FM280300 VRB04KT P6SM SCT200=



000
FTUS43 KGLD 270520
TAFMCK
TAF
KMCK 270520Z 2706/2806 06007KT P6SM BKN040
     FM271000 04006KT P6SM SCT040 SCT200
     FM271800 05012G17KT P6SM FEW050 SCT250
     FM272100 05011KT P6SM FEW050 SCT250
     FM280300 VRB04KT P6SM FEW200=



000
FTUS43 KGLD 270520 CCA
TAFGLD
TAF COR
KGLD 270520Z 2706/2806 07009KT 6SM BR BKN020
     FM271400 04012KT P6SM BKN030
     FM271600 04014G19KT P6SM SCT035 BKN180
     FM272300 06011KT P6SM FEW050 SCT180
     FM280300 VRB04KT P6SM SCT200=



000
FTUS43 KGLD 270520
TAFGLD
TAF
KGLD 270520Z 2706/2806 07009KT P6SM BKN020
     FM271400 04012KT P6SM BKN030
     FM271600 04014G19KT P6SM SCT035 BKN180
     FM272300 06011KT P6SM FEW050 SCT180
     FM280300 VRB04KT P6SM SCT200=



000
FTUS43 KGLD 270332 AAA
TAFGLD
TAF AMD
KGLD 270332Z 2704/2724 07011KT 4SM -RA BR OVC006
     FM271300 05012G17KT 3SM -DZ BR OVC004
     FM271600 05014G21KT P6SM BKN025
     FM271800 05014G21KT P6SM SCT035 SCT180
     FM272300 05012KT P6SM SCT180=



000
FTUS43 KGLD 270332 AAA
TAFMCK
TAF AMD
KMCK 270332Z 2704/2724 07008KT P6SM OVC030
     FM270500 09009KT P6SM OVC025
     FM271100 05008KT P6SM OVC025
     FM271700 05011KT P6SM FEW035 SCT250=



000
FTUS43 KGLD 270332 AAA
TAFMCK
TAF AMD
KMCK 270332Z 2704/2724 07008KT P6SM OVC030
     FM270500 09009KT P6SM OVC025
     FM271100 05008KT P6SM OVC025
     FM271700 05011KT P6SM FEW035 SCT250=



000
FTUS43 KGLD 270332 AAA
TAFMCK
TAF AMD
KMCK 270332Z 2704/2724 07008KT P6SM OVC030
     FM270500 09009KT P6SM OVC025
     FM271100 05008KT P6SM OVC025
     FM271700 05011KT P6SM FEW035 SCT250=



000
FTUS43 KGLD 262323
TAFGLD
TAF
KGLD 262323Z 2700/2724 07013G20KT 4SM -DZ BR OVC003
      TEMPO 2700/2702 P6SM NSW BKN006
     FM271300 05012G17KT 3SM -DZ BR OVC004
     FM271600 05014G21KT P6SM BKN025
     FM271800 05014G21KT P6SM SCT035 SCT180
     FM272300 05012KT P6SM SCT180=



000
FTUS43 KGLD 262323
TAFMCK
TAF
KMCK 262323Z 2700/2724 09009KT P6SM BKN025
     FM270200 09008KT P6SM OVC030
     FM270500 09009KT P6SM OVC025
     FM271100 05008KT P6SM OVC025
     FM271700 05011KT P6SM FEW035 SCT250=



000
FTUS43 KGLD 262323
TAFMCK
TAF
KMCK 262323Z 2700/2724 09009KT P6SM BKN025
     FM270200 09008KT P6SM OVC030
     FM270500 09009KT P6SM OVC025
     FM271100 05008KT P6SM OVC025
     FM271700 05011KT P6SM FEW035 SCT250=



000
FTUS43 KGLD 262323
TAFMCK
TAF
KMCK 262323Z 2700/2724 09009KT P6SM BKN025
     FM270200 09008KT P6SM OVC030
     FM270500 09009KT P6SM OVC025
     FM271100 05008KT P6SM OVC025
     FM271700 05011KT P6SM FEW035 SCT250=



000
FTUS43 KGLD 262323
TAFGLD
TAF
KGLD 262323Z 2700/2724 07013G20KT 4SM -DZ BR OVC003
      TEMPO 2700/2702 P6SM NSW BKN006
     FM271300 05012G17KT 3SM -DZ BR OVC004
     FM271600 05014G21KT P6SM BKN025
     FM271800 05014G21KT P6SM SCT035 SCT180
     FM272300 05012KT P6SM SCT180=



000
FTUS43 KGLD 262323
TAFMCK
TAF
KMCK 262323Z 2700/2724 09009KT P6SM BKN025
     FM270200 09008KT P6SM OVC030
     FM270500 09009KT P6SM OVC025
     FM271100 05008KT P6SM OVC025
     FM271700 05011KT P6SM FEW035 SCT250=



000
FTUS43 KGLD 261942 AAA
TAFMCK
TAF AMD
KMCK 261942Z 2620/2718 08013G18KT 5SM -DZ BR OVC006
      TEMPO 2620/2624 2SM BR OVC003
     FM270000 08012KT P6SM OVC012
     FM270300 06014KT P6SM BKN030
     FM270900 04008KT P6SM SCT020 BKN035=



000
FTUS43 KGLD 261942 AAA
TAFMCK
TAF AMD
KMCK 261942Z 2620/2718 08013G18KT 5SM -DZ BR OVC006
      TEMPO 2620/2624 2SM BR OVC003
     FM270000 08012KT P6SM OVC012
     FM270300 06014KT P6SM BKN030
     FM270900 04008KT P6SM SCT020 BKN035=



000
FTUS43 KGLD 261942 AAA
TAFMCK
TAF AMD
KMCK 261942Z 2620/2718 08013G18KT 5SM -DZ BR OVC006
      TEMPO 2620/2624 2SM BR OVC003
     FM270000 08012KT P6SM OVC012
     FM270300 06014KT P6SM BKN030
     FM270900 04008KT P6SM SCT020 BKN035=



000
FTUS43 KGLD 261720
TAFMCK
TAF
KMCK 261720Z 2618/2718 08013G18KT 5SM -DZ BR OVC005
     FM262200 08012KT P6SM OVC012
     FM270300 06014KT P6SM BKN030
     FM270900 04008KT P6SM SCT020 BKN035=



000
FTUS43 KGLD 261720
TAFMCK
TAF
KMCK 261720Z 2618/2718 08013G18KT 5SM -DZ BR OVC005
     FM262200 08012KT P6SM OVC012
     FM270300 06014KT P6SM BKN030
     FM270900 04008KT P6SM SCT020 BKN035=



000
FTUS43 KGLD 261720
TAFMCK
TAF
KMCK 261720Z 2618/2718 08013G18KT 5SM -DZ BR OVC005
     FM262200 08012KT P6SM OVC012
     FM270300 06014KT P6SM BKN030
     FM270900 04008KT P6SM SCT020 BKN035=



000
FTUS43 KGLD 261720
TAFGLD
TAF
KGLD 261720Z 2618/2718 07014G22KT 5SM -DZ BR OVC005
      TEMPO 2618/2621 2SM -DZ BR OVC002
     FM262300 06010KT 6SM -RA BR OVC005
      TEMPO 2700/2703 2SM BR OVC003
     FM270800 05012KT P6SM -SHRA OVC007
     FM271200 05012G20KT P6SM VCSH OVC015=



000
FTUS43 KGLD 261720
TAFMCK
TAF
KMCK 261720Z 2618/2718 08013G18KT 5SM -DZ BR OVC005
     FM262200 08012KT P6SM OVC012
     FM270300 06014KT P6SM BKN030
     FM270900 04008KT P6SM SCT020 BKN035=



000
FTUS43 KGLD 261720
TAFGLD
TAF
KGLD 261720Z 2618/2718 07014G22KT 5SM -DZ BR OVC005
      TEMPO 2618/2621 2SM -DZ BR OVC002
     FM262300 06010KT 6SM -RA BR OVC005
      TEMPO 2700/2703 2SM BR OVC003
     FM270800 05012KT P6SM -SHRA OVC007
     FM271200 05012G20KT P6SM VCSH OVC015=



000
FTUS43 KGLD 261234 AAA
TAFGLD
TAF AMD
KGLD 261234Z 2613/2712 09013G20KT 2SM -RA BR VCTS OVC005CB
      TEMPO 2613/2616 1/2SM FG OVC002
     FM261800 07014G22KT P6SM OVC007
      TEMPO 2618/2621 6SM -RA BR
     FM270100 06010KT 6SM -RA BR OVC003
     FM270800 05012KT P6SM OVC007=



000
FTUS43 KGLD 261146
TAFMCK
TAF
KMCK 261146Z 2612/2712 09012KT 3SM BR OVC004
      TEMPO 2613/2617 6SM -DZ BR OVC007
     FM261800 08013G18KT 6SM BR OVC007
     FM262100 08012KT P6SM OVC015
     FM270000 06014KT P6SM BKN030
     FM270600 03008KT P6SM BKN035=



000
FTUS43 KGLD 261146
TAFGLD
TAF
KGLD 261146Z 2612/2712 09013G20KT 4SM -RA BR VCTS OVC003CB
     FM261800 07014G22KT P6SM OVC007
      TEMPO 2618/2621 6SM -RA BR
     FM270100 06010KT 6SM -RA BR OVC003
     FM270800 05012KT P6SM OVC007=



000
FTUS43 KGLD 261146
TAFMCK
TAF
KMCK 261146Z 2612/2712 09012KT 3SM BR OVC004
      TEMPO 2613/2617 6SM -DZ BR OVC007
     FM261800 08013G18KT 6SM BR OVC007
     FM262100 08012KT P6SM OVC015
     FM270000 06014KT P6SM BKN030
     FM270600 03008KT P6SM BKN035=



000
FTUS43 KGLD 261146
TAFMCK
TAF
KMCK 261146Z 2612/2712 09012KT 3SM BR OVC004
      TEMPO 2613/2617 6SM -DZ BR OVC007
     FM261800 08013G18KT 6SM BR OVC007
     FM262100 08012KT P6SM OVC015
     FM270000 06014KT P6SM BKN030
     FM270600 03008KT P6SM BKN035=



000
FTUS43 KGLD 261146
TAFMCK
TAF
KMCK 261146Z 2612/2712 09012KT 3SM BR OVC004
      TEMPO 2613/2617 6SM -DZ BR OVC007
     FM261800 08013G18KT 6SM BR OVC007
     FM262100 08012KT P6SM OVC015
     FM270000 06014KT P6SM BKN030
     FM270600 03008KT P6SM BKN035=



000
FTUS43 KGLD 261146
TAFGLD
TAF
KGLD 261146Z 2612/2712 09013G20KT 4SM -RA BR VCTS OVC003CB
     FM261800 07014G22KT P6SM OVC007
      TEMPO 2618/2621 6SM -RA BR
     FM270100 06010KT 6SM -RA BR OVC003
     FM270800 05012KT P6SM OVC007=



000
FTUS43 KGLD 260934 AAB
TAFMCK
TAF AMD
KMCK 260934Z 2610/2706 09010KT 5SM BR OVC004
     FM261700 09013G18KT 6SM BR OVC006
     FM262000 09012G17KT P6SM OVC015
     FM262300 09014G20KT P6SM BKN030
     FM270200 08011G16KT P6SM BKN035
     FM270500 08009KT P6SM BKN035=



000
FTUS43 KGLD 260934 AAB
TAFMCK
TAF AMD
KMCK 260934Z 2610/2706 09010KT 5SM BR OVC004
     FM261700 09013G18KT 6SM BR OVC006
     FM262000 09012G17KT P6SM OVC015
     FM262300 09014G20KT P6SM BKN030
     FM270200 08011G16KT P6SM BKN035
     FM270500 08009KT P6SM BKN035=



000
FTUS43 KGLD 260934 AAB
TAFMCK
TAF AMD
KMCK 260934Z 2610/2706 09010KT 5SM BR OVC004
     FM261700 09013G18KT 6SM BR OVC006
     FM262000 09012G17KT P6SM OVC015
     FM262300 09014G20KT P6SM BKN030
     FM270200 08011G16KT P6SM BKN035
     FM270500 08009KT P6SM BKN035=



000
FTUS43 KGLD 260838 AAC
TAFGLD
TAF AMD
KGLD 260838Z 2609/2706 10014KT 1SM BR OVC002
      TEMPO 2609/2612 3SM -SHRA BR OVC004
     FM261200 11013G17KT 5SM -RA BR VCTS OVC003CB
     FM262100 09013G19KT P6SM VCSH OVC007=



000
FTUS43 KGLD 260627 AAB
TAFGLD
TAF AMD
KGLD 260627Z 2606/2706 09014G20KT 1/4SM FG OVC002
      TEMPO 2607/2609 1SM -SHRA BR OVC004
     FM260900 11012G16KT 6SM BR VCTS OVC004CB
      TEMPO 2609/2612 5SM -TSRA BR OVC004CB
     FM261200 11013G17KT 5SM -RA BR VCTS OVC003CB
     FM262100 09013G19KT P6SM VCSH OVC007=



000
FTUS43 KGLD 260627 AAB
TAFGLD
TAF AMD
KGLD 260627Z 2606/2706 09014G20KT 1/4SM FG OVC002
      TEMPO 2607/2609 1SM -SHRA BR OVC004
     FM260900 11012G16KT 6SM BR VCTS OVC004CB
      TEMPO 2609/2612 5SM -TSRA BR OVC004CB
     FM261200 11013G17KT 5SM -RA BR VCTS OVC003CB
     FM262100 09013G19KT P6SM VCSH OVC007=



000
FTUS43 KGLD 260538 AAA
TAFMCK
TAF AMD
KMCK 260538Z 2606/2706 09014KT 5SM BR OVC009
      TEMPO 2606/2608 2SM BR OVC002
     FM260800 09011KT 5SM BR OVC007
     FM261200 09010KT 5SM BR OVC004
     FM261700 09013G18KT 6SM BR OVC006
     FM262000 09012G17KT P6SM OVC015
     FM262300 09014G20KT P6SM BKN030
     FM270200 08011G16KT P6SM BKN035
     FM270500 08009KT P6SM BKN035=



000
FTUS43 KGLD 260537 AAA
TAFGLD
TAF AMD
KGLD 260537Z 2606/2706 11014G20KT 6SM BR OVC004
      TEMPO 2606/2608 1SM BR OVC002
     FM260800 11012G16KT 6SM BR VCTS OVC004CB
      TEMPO 2608/2612 5SM -TSRA BR OVC004CB
     FM261200 11013G17KT 5SM -RA BR VCTS OVC003CB
     FM262100 09013G19KT P6SM VCSH OVC007=



000
FTUS43 KGLD 260520
TAFGLD
TAF
KGLD 260520Z 2606/2706 11014G20KT 6SM BR OVC004
     FM260800 11012G16KT 6SM BR VCTS OVC004CB
      TEMPO 2608/2612 5SM -TSRA BR OVC004CB
     FM261200 11013G17KT 5SM -RA BR VCTS OVC003CB
     FM262100 09013G19KT P6SM VCSH OVC007=



000
FTUS43 KGLD 260520
TAFMCK
TAF
KMCK 260520Z 2606/2706 09013KT 5SM BR OVC009
     FM260800 09011KT 6SM BR OVC007
     FM261200 09010KT 6SM BR OVC004
     FM261700 09013G18KT 6SM BR OVC006
     FM262000 09012G17KT P6SM OVC015
     FM262300 09014G20KT P6SM BKN030
     FM270200 08011G16KT P6SM BKN035
     FM270500 08009KT P6SM BKN035=



000
FTUS43 KGLD 260520
TAFMCK
TAF
KMCK 260520Z 2606/2706 09013KT 5SM BR OVC009
     FM260800 09011KT 6SM BR OVC007
     FM261200 09010KT 6SM BR OVC004
     FM261700 09013G18KT 6SM BR OVC006
     FM262000 09012G17KT P6SM OVC015
     FM262300 09014G20KT P6SM BKN030
     FM270200 08011G16KT P6SM BKN035
     FM270500 08009KT P6SM BKN035=



000
FTUS43 KGLD 260520
TAFMCK
TAF
KMCK 260520Z 2606/2706 09013KT 5SM BR OVC009
     FM260800 09011KT 6SM BR OVC007
     FM261200 09010KT 6SM BR OVC004
     FM261700 09013G18KT 6SM BR OVC006
     FM262000 09012G17KT P6SM OVC015
     FM262300 09014G20KT P6SM BKN030
     FM270200 08011G16KT P6SM BKN035
     FM270500 08009KT P6SM BKN035=



000
FTUS43 KGLD 260520
TAFGLD
TAF
KGLD 260520Z 2606/2706 11014G20KT 6SM BR OVC004
     FM260800 11012G16KT 6SM BR VCTS OVC004CB
      TEMPO 2608/2612 5SM -TSRA BR OVC004CB
     FM261200 11013G17KT 5SM -RA BR VCTS OVC003CB
     FM262100 09013G19KT P6SM VCSH OVC007=



000
FTUS43 KGLD 260520
TAFMCK
TAF
KMCK 260520Z 2606/2706 09013KT 5SM BR OVC009
     FM260800 09011KT 6SM BR OVC007
     FM261200 09010KT 6SM BR OVC004
     FM261700 09013G18KT 6SM BR OVC006
     FM262000 09012G17KT P6SM OVC015
     FM262300 09014G20KT P6SM BKN030
     FM270200 08011G16KT P6SM BKN035
     FM270500 08009KT P6SM BKN035=



000
FTUS43 KGLD 260326 AAB
TAFGLD
TAF AMD
KGLD 260326Z 2603/2624 10015KT P6SM OVC008
     FM260500 11012KT 6SM BR OVC006
     FM260600 11012KT 6SM BR VCTS OVC006CB
      TEMPO 2607/2611 -TSRA
     FM261100 11012KT 4SM BR VCTS OVC004CB
      TEMPO 2611/2615 -TSRA
     FM261600 10012KT 4SM BR VCSH OVC004
     FM262200 09013KT 4SM BR VCSH OVC006=



000
FTUS43 KGLD 260326 AAB
TAFGLD
TAF AMD
KGLD 260326Z 2603/2624 10015KT P6SM OVC008
     FM260500 11012KT 6SM BR OVC006
     FM260600 11012KT 6SM BR VCTS OVC006CB
      TEMPO 2607/2611 -TSRA
     FM261100 11012KT 4SM BR VCTS OVC004CB
      TEMPO 2611/2615 -TSRA
     FM261600 10012KT 4SM BR VCSH OVC004
     FM262200 09013KT 4SM BR VCSH OVC006=



000
FTUS43 KGLD 260251 AAA
TAFMCK
TAF AMD
KMCK 260251Z 2603/2624 09013KT P6SM BKN015
     FM260500 08011KT 6SM BR OVC006
     FM260900 08010KT 4SM BR OVC004
     FM261500 09012KT 4SM BR OVC004
     FM261700 08012KT 5SM BR VCTS OVC006CB
     FM262000 07012KT P6SM VCTS SCT006 BKN015CB
     FM262300 07012KT P6SM SCT015 BKN030=



000
FTUS43 KGLD 260251 AAA
TAFMCK
TAF AMD
KMCK 260251Z 2603/2624 09013KT P6SM BKN015
     FM260500 08011KT 6SM BR OVC006
     FM260900 08010KT 4SM BR OVC004
     FM261500 09012KT 4SM BR OVC004
     FM261700 08012KT 5SM BR VCTS OVC006CB
     FM262000 07012KT P6SM VCTS SCT006 BKN015CB
     FM262300 07012KT P6SM SCT015 BKN030=



000
FTUS43 KGLD 252320
TAFMCK
TAF
KMCK 252320Z 2600/2624 09012KT P6SM BKN040
     FM260500 08011KT 6SM BR OVC006
     FM260900 08010KT 4SM BR OVC004
     FM261500 09012KT 4SM BR OVC004
     FM261700 08012KT 5SM BR VCTS OVC006CB
     FM262000 07012KT P6SM VCTS SCT006 BKN015CB
     FM262300 07012KT P6SM SCT015 BKN030=



000
FTUS43 KGLD 252320
TAFGLD
TAF
KGLD 252320Z 2600/2624 11011KT P6SM SCT060 SCT280
     FM260500 11012KT 6SM BR OVC006
     FM260600 11012KT 6SM BR VCTS OVC006CB
      TEMPO 2607/2611 -TSRA
     FM261100 11012KT 4SM BR VCTS OVC004CB
      TEMPO 2611/2615 -TSRA
     FM261600 10012KT 4SM BR VCSH OVC004
     FM262200 09013KT 4SM BR VCSH OVC006=



000
FTUS43 KGLD 252320
TAFMCK
TAF
KMCK 252320Z 2600/2624 09012KT P6SM BKN040
     FM260500 08011KT 6SM BR OVC006
     FM260900 08010KT 4SM BR OVC004
     FM261500 09012KT 4SM BR OVC004
     FM261700 08012KT 5SM BR VCTS OVC006CB
     FM262000 07012KT P6SM VCTS SCT006 BKN015CB
     FM262300 07012KT P6SM SCT015 BKN030=



000
FTUS43 KGLD 252320
TAFMCK
TAF
KMCK 252320Z 2600/2624 09012KT P6SM BKN040
     FM260500 08011KT 6SM BR OVC006
     FM260900 08010KT 4SM BR OVC004
     FM261500 09012KT 4SM BR OVC004
     FM261700 08012KT 5SM BR VCTS OVC006CB
     FM262000 07012KT P6SM VCTS SCT006 BKN015CB
     FM262300 07012KT P6SM SCT015 BKN030=



000
FTUS43 KGLD 252320
TAFGLD
TAF
KGLD 252320Z 2600/2624 11011KT P6SM SCT060 SCT280
     FM260500 11012KT 6SM BR OVC006
     FM260600 11012KT 6SM BR VCTS OVC006CB
      TEMPO 2607/2611 -TSRA
     FM261100 11012KT 4SM BR VCTS OVC004CB
      TEMPO 2611/2615 -TSRA
     FM261600 10012KT 4SM BR VCSH OVC004
     FM262200 09013KT 4SM BR VCSH OVC006=



000
FTUS43 KGLD 252320
TAFMCK
TAF
KMCK 252320Z 2600/2624 09012KT P6SM BKN040
     FM260500 08011KT 6SM BR OVC006
     FM260900 08010KT 4SM BR OVC004
     FM261500 09012KT 4SM BR OVC004
     FM261700 08012KT 5SM BR VCTS OVC006CB
     FM262000 07012KT P6SM VCTS SCT006 BKN015CB
     FM262300 07012KT P6SM SCT015 BKN030=



000
FTUS43 KGLD 251720
TAFMCK
TAF
KMCK 251720Z 2518/2618 05010KT P6SM FEW050 SCT150
     FM252300 09012KT P6SM SCT050 BKN120
     FM260400 09010KT 6SM BR OVC006
     FM260900 08010G16KT 3SM -DZ BR OVC002=



000
FTUS43 KGLD 251720
TAFGLD
TAF
KGLD 251720Z 2518/2618 34009KT P6SM FEW150
     FM252100 04006KT P6SM FEW060 SCT120
     FM260100 11012KT P6SM SCT060 BKN120
     FM260500 10012KT 5SM BR VCTS SCT006 OVC060CB
     FM260900 11012KT 6SM -DZ BR SCT002 OVC006
     FM261300 10010G16KT 3SM -DZ BR OVC002=



000
FTUS43 KGLD 251720
TAFMCK
TAF
KMCK 251720Z 2518/2618 05010KT P6SM FEW050 SCT150
     FM252300 09012KT P6SM SCT050 BKN120
     FM260400 09010KT 6SM BR OVC006
     FM260900 08010G16KT 3SM -DZ BR OVC002=



000
FTUS43 KGLD 251720
TAFMCK
TAF
KMCK 251720Z 2518/2618 05010KT P6SM FEW050 SCT150
     FM252300 09012KT P6SM SCT050 BKN120
     FM260400 09010KT 6SM BR OVC006
     FM260900 08010G16KT 3SM -DZ BR OVC002=



000
FTUS43 KGLD 251720
TAFMCK
TAF
KMCK 251720Z 2518/2618 05010KT P6SM FEW050 SCT150
     FM252300 09012KT P6SM SCT050 BKN120
     FM260400 09010KT 6SM BR OVC006
     FM260900 08010G16KT 3SM -DZ BR OVC002=



000
FTUS43 KGLD 251720
TAFGLD
TAF
KGLD 251720Z 2518/2618 34009KT P6SM FEW150
     FM252100 04006KT P6SM FEW060 SCT120
     FM260100 11012KT P6SM SCT060 BKN120
     FM260500 10012KT 5SM BR VCTS SCT006 OVC060CB
     FM260900 11012KT 6SM -DZ BR SCT002 OVC006
     FM261300 10010G16KT 3SM -DZ BR OVC002=



    US Dept of Commerce
    National Oceanic and Atmospheric Administration
    National Weather Service
    1325 East West Highway
    Silver Spring, MD 20910
    Page Author: NWS Internet Services Team
Disclaimer
Information Quality
Credits
Glossary
Privacy Policy
Freedom of Information Act (FOIA)
About Us
Career Opportunities